Terminal Aerodrome Forecast
Issued by NWS Springfield, MO

Home | Current Version | Previous Version | Text Only | Print | Product List | Glossary On
Versions: 1 2 3 4 5 6 7 8 9 10 11 12 13 14 15 16 17 18 19 20 21
333
FTUS43 KSGF 281732
TAFSGF
TAF
KSGF 281732Z 2818/2918 31006KT P6SM FEW026
     FM282000 32006KT P6SM VCTS BKN035CB
     FM282300 32006KT P6SM FEW150
     FM290900 32005KT P6SM OVC050 PROB30 2912/2918 5SM TSRA
      BKN050CB=

USA.gov is the U.S. government's official web portal to all federal, state and local government web resources and services.